Terminal Aerodrome Forecast
Issued by NWS

Home | Current Version | Previous Version | Text Only | Print | Product List | Glossary On
Versions: 1 2 3 4 5 6 7 8 9 10 11 12 13 14 15 16 17
000
FTUS45 KRIW 230500
TAFBPI
TAF
KBPI 230536Z 2306/2406 14006KT P6SM -SHRA VCFG SCT020 OVC035
      TEMPO 2306/2310 -SHRA SCT005 BKN020
     FM231800 VRB05KT P6SM VCTS SCT050CB BKN080
     FM240200 VRB05KT P6SM VCSH BKN080=

USA.gov is the U.S. government's official web portal to all federal, state and local government web resources and services.